CBA weather

La Ceiba Airport
Huimanguillo, Tabasco, Mexico

Public forecast

Using degrees Celsius for public forecast. Weather courtesy of forecast.io.

METAR (pilot weather report)

Closest report is Carlos Rovirosa Pérez International Airport, 43.5 nm (80.6 km) E. Retrieved 2019/09/18 17:42 UTC (1 hour ago):

MMVA 181742Z 06010KT 7SM SCT015 SCT070 SCT210 32/25 A2992 RMK SLP129 57007 964 8/131 HZY

TAF (pilot weather forecast)

Closest forecast is Carlos Rovirosa Pérez International Airport, 43.5 nm (80.6 km) E. Retrieved 2019/09/18 18:33 UTC (24 minutes ago):

TAF MMVA 181730Z 1818/1918 12015KT P6SM BKN015 BKN230 FM182200 13015KT P6SM BKN020CB OVC080 TEMPO 1822/1902 3SM TSRA BECMG 1903/1904 09010KT TEMPO 1903/1907 4SM RA FM191000 00000KT 3SM BR OVC008 FM191500 00000KT 4SM HZ SCT010 BKN080